sensor_id;sensor_type;location;lat;lon;timestamp;pressure;altitude;pressure_sealevel;temperature;humidity
65175;BME280;51761;42.126;24.752;2023-03-14T00:01:26;100087.56;;;4.72;56.50
65175;BME280;51761;42.126;24.752;2023-03-14T00:03:51;100059.41;;;4.67;57.36
65175;BME280;51761;42.126;24.752;2023-03-14T00:06:18;100079.91;;;4.88;56.28
65175;BME280;51761;42.126;24.752;2023-03-14T00:08:44;100092.66;;;4.96;54.92
65175;BME280;51761;42.126;24.752;2023-03-14T00:11:15;100082.09;;;5.05;54.86
65175;BME280;51761;42.126;24.752;2023-03-14T00:13:40;100077.59;;;4.94;54.93
65175;BME280;51761;42.126;24.752;2023-03-14T00:16:12;100079.09;;;4.88;54.80
65175;BME280;51761;42.126;24.752;2023-03-14T00:18:38;100055.22;;;4.76;54.86
65175;BME280;51761;42.126;24.752;2023-03-14T00:21:05;100047.91;;;4.62;55.46
65175;BME280;51761;42.126;24.752;2023-03-14T00:23:33;100067.44;;;4.75;55.72
65175;BME280;51761;42.126;24.752;2023-03-14T00:26:07;100059.28;;;4.57;56.46
65175;BME280;51761;42.126;24.752;2023-03-14T00:28:33;100036.72;;;4.29;56.45
65175;BME280;51761;42.126;24.752;2023-03-14T00:30:58;100064.91;;;4.38;56.80
65175;BME280;51761;42.126;24.752;2023-03-14T00:33:24;100026.34;;;4.22;56.77
65175;BME280;51761;42.126;24.752;2023-03-14T00:35:58;100046.31;;;4.35;57.68
65175;BME280;51761;42.126;24.752;2023-03-14T00:38:24;100046.63;;;4.30;59.08
65175;BME280;51761;42.126;24.752;2023-03-14T00:40:51;100016.13;;;4.00;58.62
65175;BME280;51761;42.126;24.752;2023-03-14T00:43:17;100013.75;;;3.99;58.77
65175;BME280;51761;42.126;24.752;2023-03-14T00:45:43;100037.56;;;4.07;60.66
65175;BME280;51761;42.126;24.752;2023-03-14T00:48:09;100011.81;;;4.03;59.23
65175;BME280;51761;42.126;24.752;2023-03-14T00:50:34;100024.78;;;3.99;58.89
65175;BME280;51761;42.126;24.752;2023-03-14T00:53:00;100001.16;;;3.79;60.33
65175;BME280;51761;42.126;24.752;2023-03-14T00:55:25;100003.50;;;3.77;60.22
65175;BME280;51761;42.126;24.752;2023-03-14T00:57:51;100005.41;;;3.73;60.60
65175;BME280;51761;42.126;24.752;2023-03-14T01:00:16;100000.94;;;3.91;59.26
65175;BME280;51761;42.126;24.752;2023-03-14T01:02:43;100020.84;;;4.00;59.11
65175;BME280;51761;42.126;24.752;2023-03-14T01:05:08;100012.84;;;3.95;59.23
65175;BME280;51761;42.126;24.752;2023-03-14T01:07:36;99990.81;;;3.98;60.08
65175;BME280;51761;42.126;24.752;2023-03-14T01:10:02;99978.38;;;3.85;59.17
65175;BME280;51761;42.126;24.752;2023-03-14T01:12:28;100001.09;;;3.98;59.37
65175;BME280;51761;42.126;24.752;2023-03-14T01:14:53;99981.50;;;3.84;59.90
65175;BME280;51761;42.126;24.752;2023-03-14T01:17:19;99994.22;;;3.88;60.66
65175;BME280;51761;42.126;24.752;2023-03-14T01:19:44;99997.75;;;3.89;59.63
65175;BME280;51761;42.126;24.752;2023-03-14T01:22:10;99994.78;;;3.75;60.88
65175;BME280;51761;42.126;24.752;2023-03-14T01:24:37;99960.41;;;3.50;61.50
65175;BME280;51761;42.126;24.752;2023-03-14T01:27:02;99985.63;;;3.71;60.42
65175;BME280;51761;42.126;24.752;2023-03-14T01:29:28;99978.13;;;3.49;62.02
65175;BME280;51761;42.126;24.752;2023-03-14T01:31:53;99975.25;;;3.42;61.57
65175;BME280;51761;42.126;24.752;2023-03-14T01:34:19;99989.09;;;3.45;61.85
65175;BME280;51761;42.126;24.752;2023-03-14T01:36:44;99980.28;;;3.59;61.81
65175;BME280;51761;42.126;24.752;2023-03-14T01:39:10;99988.41;;;3.71;61.58
65175;BME280;51761;42.126;24.752;2023-03-14T01:41:35;99985.22;;;3.69;61.39
65175;BME280;51761;42.126;24.752;2023-03-14T01:44:01;99988.81;;;3.73;61.63
65175;BME280;51761;42.126;24.752;2023-03-14T01:51:46;99986.53;;;3.78;61.58
65175;BME280;51761;42.126;24.752;2023-03-14T01:57:23;99971.41;;;3.69;61.56
65175;BME280;51761;42.126;24.752;2023-03-14T02:00:06;99971.31;;;3.65;61.76
65175;BME280;51761;42.126;24.752;2023-03-14T02:02:45;99975.13;;;3.57;61.46
65175;BME280;51761;42.126;24.752;2023-03-14T02:05:12;99959.22;;;3.51;61.71
65175;BME280;51761;42.126;24.752;2023-03-14T02:07:46;99966.53;;;3.62;60.72
65175;BME280;51761;42.126;24.752;2023-03-14T02:10:15;99967.50;;;3.73;59.59
65175;BME280;51761;42.126;24.752;2023-03-14T02:12:41;99945.44;;;3.51;61.20
65175;BME280;51761;42.126;24.752;2023-03-14T02:15:08;99947.25;;;3.66;62.23
65175;BME280;51761;42.126;24.752;2023-03-14T02:17:35;99955.50;;;3.62;61.59
65175;BME280;51761;42.126;24.752;2023-03-14T02:23:01;99958.72;;;3.68;62.42
65175;BME280;51761;42.126;24.752;2023-03-14T02:25:43;99935.66;;;3.57;61.22
65175;BME280;51761;42.126;24.752;2023-03-14T02:28:11;99952.00;;;3.65;61.58
65175;BME280;51761;42.126;24.752;2023-03-14T02:30:37;99935.28;;;3.36;62.56
65175;BME280;51761;42.126;24.752;2023-03-14T02:33:15;99957.53;;;3.43;64.20
65175;BME280;51761;42.126;24.752;2023-03-14T02:35:45;99965.63;;;3.55;63.86
65175;BME280;51761;42.126;24.752;2023-03-14T02:38:17;99958.06;;;3.29;63.13
65175;BME280;51761;42.126;24.752;2023-03-14T02:40:46;99948.63;;;3.30;63.03
65175;BME280;51761;42.126;24.752;2023-03-14T02:43:11;99947.81;;;3.30;62.70
65175;BME280;51761;42.126;24.752;2023-03-14T02:45:45;99950.69;;;3.37;62.68
65175;BME280;51761;42.126;24.752;2023-03-14T02:50:44;99959.13;;;3.44;62.99
65175;BME280;51761;42.126;24.752;2023-03-14T02:53:12;99957.94;;;3.45;62.03
65175;BME280;51761;42.126;24.752;2023-03-14T02:55:38;99938.53;;;3.19;62.24
65175;BME280;51761;42.126;24.752;2023-03-14T02:58:03;99967.63;;;3.35;62.83
65175;BME280;51761;42.126;24.752;2023-03-14T03:00:29;99960.88;;;3.33;62.71
65175;BME280;51761;42.126;24.752;2023-03-14T03:02:55;99966.97;;;3.42;62.75
65175;BME280;51761;42.126;24.752;2023-03-14T03:05:21;99948.25;;;3.32;62.92
65175;BME280;51761;42.126;24.752;2023-03-14T03:07:46;99968.84;;;3.38;62.27
65175;BME280;51761;42.126;24.752;2023-03-14T03:10:12;99972.50;;;3.42;62.12
65175;BME280;51761;42.126;24.752;2023-03-14T03:12:37;99947.75;;;3.26;61.50
65175;BME280;51761;42.126;24.752;2023-03-14T03:15:03;99972.41;;;3.38;61.75
65175;BME280;51761;42.126;24.752;2023-03-14T03:17:29;99968.69;;;3.27;62.10
65175;BME280;51761;42.126;24.752;2023-03-14T03:19:54;99977.75;;;3.28;62.42
65175;BME280;51761;42.126;24.752;2023-03-14T03:22:20;99974.66;;;3.33;62.24
65175;BME280;51761;42.126;24.752;2023-03-14T03:24:45;99937.97;;;3.10;62.03
65175;BME280;51761;42.126;24.752;2023-03-14T03:27:11;99965.19;;;3.30;61.97
65175;BME280;51761;42.126;24.752;2023-03-14T03:29:36;99970.44;;;3.39;61.99
65175;BME280;51761;42.126;24.752;2023-03-14T03:32:01;99968.06;;;3.37;62.14
65175;BME280;51761;42.126;24.752;2023-03-14T03:34:27;99946.88;;;3.22;62.15
65175;BME280;51761;42.126;24.752;2023-03-14T03:36:56;99942.81;;;3.16;62.19
65175;BME280;51761;42.126;24.752;2023-03-14T03:39:21;99954.81;;;3.24;62.77
65175;BME280;51761;42.126;24.752;2023-03-14T03:41:47;99953.53;;;3.40;63.85
65175;BME280;51761;42.126;24.752;2023-03-14T03:44:12;99941.13;;;3.31;62.48
65175;BME280;51761;42.126;24.752;2023-03-14T03:46:38;99962.41;;;3.30;62.46
65175;BME280;51761;42.126;24.752;2023-03-14T03:49:04;99953.03;;;3.35;62.70
65175;BME280;51761;42.126;24.752;2023-03-14T03:51:29;99954.75;;;3.43;62.25
65175;BME280;51761;42.126;24.752;2023-03-14T03:53:56;99945.06;;;3.30;62.16
65175;BME280;51761;42.126;24.752;2023-03-14T03:56:22;99946.44;;;3.20;62.83
65175;BME280;51761;42.126;24.752;2023-03-14T03:58:47;99939.44;;;3.04;63.63
65175;BME280;51761;42.126;24.752;2023-03-14T04:01:13;99955.75;;;3.12;63.77
65175;BME280;51761;42.126;24.752;2023-03-14T04:03:38;99928.34;;;3.01;64.03
65175;BME280;51761;42.126;24.752;2023-03-14T04:06:06;99947.06;;;3.10;64.01
65175;BME280;51761;42.126;24.752;2023-03-14T04:08:32;99950.03;;;3.02;64.66
65175;BME280;51761;42.126;24.752;2023-03-14T04:10:59;99942.94;;;2.82;65.68
65175;BME280;51761;42.126;24.752;2023-03-14T04:13:26;99942.50;;;2.80;64.43
65175;BME280;51761;42.126;24.752;2023-03-14T04:15:52;99944.91;;;2.82;63.89
65175;BME280;51761;42.126;24.752;2023-03-14T04:18:18;99940.97;;;2.83;64.09
65175;BME280;51761;42.126;24.752;2023-03-14T04:20:44;99914.66;;;2.66;64.72
65175;BME280;51761;42.126;24.752;2023-03-14T04:23:10;99915.66;;;2.77;64.05
65175;BME280;51761;42.126;24.752;2023-03-14T04:25:35;99910.34;;;2.69;64.82
65175;BME280;51761;42.126;24.752;2023-03-14T04:28:01;99928.50;;;2.89;64.40
65175;BME280;51761;42.126;24.752;2023-03-14T04:30:28;99934.31;;;2.84;64.73
65175;BME280;51761;42.126;24.752;2023-03-14T04:32:54;99930.91;;;2.71;65.44
65175;BME280;51761;42.126;24.752;2023-03-14T04:35:19;99903.47;;;2.40;65.51
65175;BME280;51761;42.126;24.752;2023-03-14T04:37:44;99927.13;;;2.79;65.34
65175;BME280;51761;42.126;24.752;2023-03-14T04:40:14;99926.13;;;2.87;64.86
65175;BME280;51761;42.126;24.752;2023-03-14T04:42:40;99930.56;;;2.73;64.78
65175;BME280;51761;42.126;24.752;2023-03-14T04:45:06;99935.69;;;2.74;65.61
65175;BME280;51761;42.126;24.752;2023-03-14T04:47:32;99916.69;;;2.50;65.81
65175;BME280;51761;42.126;24.752;2023-03-14T04:49:57;99931.81;;;2.41;66.40
65175;BME280;51761;42.126;24.752;2023-03-14T04:52:23;99902.91;;;2.31;66.23
65175;BME280;51761;42.126;24.752;2023-03-14T04:54:48;99937.06;;;2.65;66.14
65175;BME280;51761;42.126;24.752;2023-03-14T04:57:14;99933.66;;;2.71;65.89
65175;BME280;51761;42.126;24.752;2023-03-14T04:59:39;99933.97;;;2.85;64.57
65175;BME280;51761;42.126;24.752;2023-03-14T05:02:05;99935.91;;;2.85;65.00
65175;BME280;51761;42.126;24.752;2023-03-14T05:04:30;99927.19;;;2.64;64.39
65175;BME280;51761;42.126;24.752;2023-03-14T05:06:58;99945.25;;;2.80;63.71
65175;BME280;51761;42.126;24.752;2023-03-14T05:09:24;99936.47;;;2.94;64.44
65175;BME280;51761;42.126;24.752;2023-03-14T05:11:49;99948.97;;;2.88;64.24
65175;BME280;51761;42.126;24.752;2023-03-14T05:14:14;99926.53;;;2.70;63.48
65175;BME280;51761;42.126;24.752;2023-03-14T05:16:40;99949.81;;;2.92;64.53
65175;BME280;51761;42.126;24.752;2023-03-14T05:19:05;99919.00;;;2.86;64.41
65175;BME280;51761;42.126;24.752;2023-03-14T05:21:31;99956.84;;;3.08;64.76
65175;BME280;51761;42.126;24.752;2023-03-14T05:23:56;99930.72;;;3.02;63.95
65175;BME280;51761;42.126;24.752;2023-03-14T05:26:22;99959.84;;;3.41;64.42
65175;BME280;51761;42.126;24.752;2023-03-14T05:28:48;99955.31;;;4.00;63.40
65175;BME280;51761;42.126;24.752;2023-03-14T05:31:13;99953.00;;;4.58;61.14
65175;BME280;51761;42.126;24.752;2023-03-14T05:33:39;99935.56;;;5.19;59.50
65175;BME280;51761;42.126;24.752;2023-03-14T05:36:05;99955.63;;;6.43;56.37
65175;BME280;51761;42.126;24.752;2023-03-14T05:38:31;99936.03;;;6.83;53.31
65175;BME280;51761;42.126;24.752;2023-03-14T05:40:56;99954.09;;;7.69;51.86
65175;BME280;51761;42.126;24.752;2023-03-14T05:43:22;99952.09;;;8.53;49.86
65175;BME280;51761;42.126;24.752;2023-03-14T05:45:47;99956.84;;;8.67;48.54
65175;BME280;51761;42.126;24.752;2023-03-14T05:48:13;99933.31;;;8.85;47.46
65175;BME280;51761;42.126;24.752;2023-03-14T05:50:38;99952.56;;;9.34;46.60
65175;BME280;51761;42.126;24.752;2023-03-14T05:53:04;99957.75;;;9.93;44.78
65175;BME280;51761;42.126;24.752;2023-03-14T05:55:29;99953.13;;;9.69;44.88
65175;BME280;51761;42.126;24.752;2023-03-14T05:57:55;99956.03;;;10.13;44.72
65175;BME280;51761;42.126;24.752;2023-03-14T06:00:21;99954.75;;;10.18;43.76
65175;BME280;51761;42.126;24.752;2023-03-14T06:02:47;99943.41;;;10.39;43.33
65175;BME280;51761;42.126;24.752;2023-03-14T06:05:12;99959.72;;;11.14;41.44
65175;BME280;51761;42.126;24.752;2023-03-14T06:07:38;99935.75;;;11.13;41.74
65175;BME280;51761;42.126;24.752;2023-03-14T06:10:04;99957.19;;;11.53;41.24
65175;BME280;51761;42.126;24.752;2023-03-14T06:12:30;99955.72;;;11.98;40.26
65175;BME280;51761;42.126;24.752;2023-03-14T06:14:55;99937.72;;;12.45;38.96
65175;BME280;51761;42.126;24.752;2023-03-14T06:17:21;99958.19;;;11.69;40.22
65175;BME280;51761;42.126;24.752;2023-03-14T06:19:46;99953.16;;;11.84;40.64
65175;BME280;51761;42.126;24.752;2023-03-14T06:22:12;99930.38;;;11.59;41.68
65175;BME280;51761;42.126;24.752;2023-03-14T06:24:37;99923.50;;;11.63;40.32
65175;BME280;51761;42.126;24.752;2023-03-14T06:27:03;99916.72;;;11.87;40.51
65175;BME280;51761;42.126;24.752;2023-03-14T06:29:29;99918.50;;;12.24;38.94
65175;BME280;51761;42.126;24.752;2023-03-14T06:31:55;99938.53;;;12.22;38.93
65175;BME280;51761;42.126;24.752;2023-03-14T06:34:20;99927.28;;;12.45;39.26
65175;BME280;51761;42.126;24.752;2023-03-14T06:36:46;99941.22;;;12.71;38.39
65175;BME280;51761;42.126;24.752;2023-03-14T06:39:12;99934.69;;;12.36;39.66
65175;BME280;51761;42.126;24.752;2023-03-14T06:41:37;99928.78;;;12.30;39.37
65175;BME280;51761;42.126;24.752;2023-03-14T06:44:03;99947.72;;;12.46;39.56
65175;BME280;51761;42.126;24.752;2023-03-14T06:46:29;99935.84;;;13.00;38.87
65175;BME280;51761;42.126;24.752;2023-03-14T06:48:54;99953.41;;;13.23;38.10
65175;BME280;51761;42.126;24.752;2023-03-14T06:51:20;99930.88;;;13.27;37.46
65175;BME280;51761;42.126;24.752;2023-03-14T06:53:46;99941.34;;;13.62;37.11
65175;BME280;51761;42.126;24.752;2023-03-14T06:56:11;99936.56;;;14.70;35.54
65175;BME280;51761;42.126;24.752;2023-03-14T06:58:37;99937.16;;;14.49;35.58
65175;BME280;51761;42.126;24.752;2023-03-14T07:01:02;99913.03;;;14.04;36.01
65175;BME280;51761;42.126;24.752;2023-03-14T07:03:28;99924.56;;;13.58;36.10
65175;BME280;51761;42.126;24.752;2023-03-14T07:05:53;99927.56;;;13.32;36.64
65175;BME280;51761;42.126;24.752;2023-03-14T07:08:19;99922.09;;;13.25;36.52
65175;BME280;51761;42.126;24.752;2023-03-14T07:10:45;99917.13;;;12.74;37.83
65175;BME280;51761;42.126;24.752;2023-03-14T07:13:10;99922.69;;;12.77;38.06
65175;BME280;51761;42.126;24.752;2023-03-14T07:15:36;99903.47;;;12.57;37.87
65175;BME280;51761;42.126;24.752;2023-03-14T07:18:01;99912.72;;;12.54;38.93
65175;BME280;51761;42.126;24.752;2023-03-14T07:20:27;99891.75;;;12.61;37.69
65175;BME280;51761;42.126;24.752;2023-03-14T07:22:52;99903.41;;;12.60;37.65
65175;BME280;51761;42.126;24.752;2023-03-14T07:25:18;99904.44;;;13.08;37.09
65175;BME280;51761;42.126;24.752;2023-03-14T07:27:44;99902.75;;;13.66;36.13
65175;BME280;51761;42.126;24.752;2023-03-14T07:30:11;99901.72;;;13.92;35.91
65175;BME280;51761;42.126;24.752;2023-03-14T07:32:37;99897.66;;;13.77;36.58
65175;BME280;51761;42.126;24.752;2023-03-14T07:35:02;99870.47;;;13.74;36.43
65175;BME280;51761;42.126;24.752;2023-03-14T07:37:28;99896.44;;;14.10;34.97
65175;BME280;51761;42.126;24.752;2023-03-14T07:39:54;99896.81;;;14.27;35.12
65175;BME280;51761;42.126;24.752;2023-03-14T07:42:19;99892.69;;;14.32;34.79
65175;BME280;51761;42.126;24.752;2023-03-14T07:44:44;99893.53;;;14.13;34.94
65175;BME280;51761;42.126;24.752;2023-03-14T07:47:10;99887.34;;;14.50;55.02
65175;BME280;51761;42.126;24.752;2023-03-14T07:49:35;99886.41;;;14.40;59.45
65175;BME280;51761;42.126;24.752;2023-03-14T07:52:01;99870.38;;;14.82;38.84
65175;BME280;51761;42.126;24.752;2023-03-14T07:54:26;99885.91;;;14.58;38.88
65175;BME280;51761;42.126;24.752;2023-03-14T07:56:52;99870.69;;;14.43;37.38
65175;BME280;51761;42.126;24.752;2023-03-14T07:59:18;99862.88;;;14.91;51.69
65175;BME280;51761;42.126;24.752;2023-03-14T08:01:44;99871.16;;;15.23;39.85
65175;BME280;51761;42.126;24.752;2023-03-14T08:04:09;99878.97;;;15.69;41.71
65175;BME280;51761;42.126;24.752;2023-03-14T08:06:37;99873.56;;;16.46;35.92
65175;BME280;51761;42.126;24.752;2023-03-14T08:09:04;99870.25;;;16.13;32.68
65175;BME280;51761;42.126;24.752;2023-03-14T08:11:29;99848.13;;;16.58;32.92
65175;BME280;51761;42.126;24.752;2023-03-14T08:13:55;99868.84;;;16.30;34.15
65175;BME280;51761;42.126;24.752;2023-03-14T08:16:20;99866.31;;;16.79;35.56
65175;BME280;51761;42.126;24.752;2023-03-14T08:18:46;99843.22;;;16.03;31.85
65175;BME280;51761;42.126;24.752;2023-03-14T08:21:12;99865.25;;;16.64;43.29
65175;BME280;51761;42.126;24.752;2023-03-14T08:23:37;99868.81;;;16.43;34.41
65175;BME280;51761;42.126;24.752;2023-03-14T08:26:03;99874.13;;;16.41;37.90
65175;BME280;51761;42.126;24.752;2023-03-14T08:28:28;99837.81;;;16.43;33.08
65175;BME280;51761;42.126;24.752;2023-03-14T08:31:00;99860.94;;;16.38;31.95
65175;BME280;51761;42.126;24.752;2023-03-14T08:33:27;99838.09;;;16.57;37.71
65175;BME280;51761;42.126;24.752;2023-03-14T08:35:58;99860.91;;;16.72;32.97
65175;BME280;51761;42.126;24.752;2023-03-14T08:38:24;99848.97;;;17.11;44.53
65175;BME280;51761;42.126;24.752;2023-03-14T08:40:57;99836.41;;;17.03;38.17
65175;BME280;51761;42.126;24.752;2023-03-14T08:43:23;99817.97;;;16.89;32.47
65175;BME280;51761;42.126;24.752;2023-03-14T08:45:49;99823.16;;;16.48;32.07
65175;BME280;51761;42.126;24.752;2023-03-14T08:48:15;99837.75;;;16.21;32.96
65175;BME280;51761;42.126;24.752;2023-03-14T08:50:40;99839.00;;;16.54;32.78
65175;BME280;51761;42.126;24.752;2023-03-14T08:53:05;99812.53;;;16.52;34.83
65175;BME280;51761;42.126;24.752;2023-03-14T08:55:31;99813.25;;;17.17;32.82
65175;BME280;51761;42.126;24.752;2023-03-14T08:57:57;99811.25;;;17.56;36.33
65175;BME280;51761;42.126;24.752;2023-03-14T09:00:22;99803.75;;;17.62;34.47
65175;BME280;51761;42.126;24.752;2023-03-14T09:02:48;99794.44;;;18.19;31.46
65175;BME280;51761;42.126;24.752;2023-03-14T09:05:13;99798.50;;;17.91;29.49
65175;BME280;51761;42.126;24.752;2023-03-14T09:07:40;99793.25;;;17.72;30.20
65175;BME280;51761;42.126;24.752;2023-03-14T09:10:07;99781.50;;;16.73;29.28
65175;BME280;51761;42.126;24.752;2023-03-14T09:12:32;99767.19;;;16.68;30.18
65175;BME280;51761;42.126;24.752;2023-03-14T09:14:58;99780.38;;;16.92;28.50
65175;BME280;51761;42.126;24.752;2023-03-14T09:17:24;99781.31;;;16.89;28.44
65175;BME280;51761;42.126;24.752;2023-03-14T09:19:49;99746.81;;;16.64;28.66
65175;BME280;51761;42.126;24.752;2023-03-14T09:22:15;99767.63;;;16.88;28.49
65175;BME280;51761;42.126;24.752;2023-03-14T09:24:41;99746.81;;;16.64;28.11
65175;BME280;51761;42.126;24.752;2023-03-14T09:27:07;99755.06;;;17.10;28.18
65175;BME280;51761;42.126;24.752;2023-03-14T09:29:33;99746.16;;;16.60;28.66
65175;BME280;51761;42.126;24.752;2023-03-14T09:31:59;99743.28;;;16.51;28.95
65175;BME280;51761;42.126;24.752;2023-03-14T09:34:26;99735.88;;;16.96;29.98
65175;BME280;51761;42.126;24.752;2023-03-14T09:36:51;99712.78;;;17.28;29.84
65175;BME280;51761;42.126;24.752;2023-03-14T09:39:17;99708.50;;;17.63;29.05
65175;BME280;51761;42.126;24.752;2023-03-14T09:41:46;99720.88;;;17.56;29.49
65175;BME280;51761;42.126;24.752;2023-03-14T09:44:21;99727.22;;;17.87;28.45
65175;BME280;51761;42.126;24.752;2023-03-14T09:46:52;99725.63;;;17.68;30.24
65175;BME280;51761;42.126;24.752;2023-03-14T09:49:25;99723.78;;;17.92;28.39
65175;BME280;51761;42.126;24.752;2023-03-14T09:51:54;99702.88;;;17.99;27.19
65175;BME280;51761;42.126;24.752;2023-03-14T09:54:37;99697.06;;;17.66;27.47
65175;BME280;51761;42.126;24.752;2023-03-14T09:57:05;99717.31;;;17.92;26.74
65175;BME280;51761;42.126;24.752;2023-03-14T09:59:33;99697.34;;;17.51;27.24
65175;BME280;51761;42.126;24.752;2023-03-14T10:02:01;99694.88;;;17.70;27.41
65175;BME280;51761;42.126;24.752;2023-03-14T10:04:30;99714.03;;;17.93;28.89
65175;BME280;51761;42.126;24.752;2023-03-14T10:06:57;99701.94;;;17.93;29.27
65175;BME280;51761;42.126;24.752;2023-03-14T10:09:23;99703.38;;;17.97;27.58
65175;BME280;51761;42.126;24.752;2023-03-14T10:11:59;99689.22;;;18.06;27.32
65175;BME280;51761;42.126;24.752;2023-03-14T10:14:36;99683.41;;;18.37;28.49
65175;BME280;51761;42.126;24.752;2023-03-14T10:17:05;99682.16;;;18.38;28.94
65175;BME280;51761;42.126;24.752;2023-03-14T10:19:32;99684.69;;;18.36;28.53
65175;BME280;51761;42.126;24.752;2023-03-14T10:22:00;99648.72;;;18.09;27.12
65175;BME280;51761;42.126;24.752;2023-03-14T10:24:29;99657.53;;;17.75;27.32
65175;BME280;51761;42.126;24.752;2023-03-14T10:26:59;99643.66;;;18.13;28.52
65175;BME280;51761;42.126;24.752;2023-03-14T10:29:31;99635.25;;;17.86;27.25
65175;BME280;51761;42.126;24.752;2023-03-14T10:36:57;99619.72;;;17.73;27.92
65175;BME280;51761;42.126;24.752;2023-03-14T10:39:27;99639.00;;;17.65;27.70
65175;BME280;51761;42.126;24.752;2023-03-14T10:44:38;99610.09;;;18.06;27.13
65175;BME280;51761;42.126;24.752;2023-03-14T10:47:04;99610.97;;;18.39;28.40
65175;BME280;51761;42.126;24.752;2023-03-14T10:49:33;99580.53;;;18.34;27.51
65175;BME280;51761;42.126;24.752;2023-03-14T10:52:14;99599.41;;;18.28;29.68
65175;BME280;51761;42.126;24.752;2023-03-14T10:54:40;99594.19;;;18.77;29.01
65175;BME280;51761;42.126;24.752;2023-03-14T10:57:06;99601.22;;;18.82;27.50
65175;BME280;51761;42.126;24.752;2023-03-14T10:59:37;99580.88;;;18.69;28.32
65175;BME280;51761;42.126;24.752;2023-03-14T11:11:22;99553.59;;;19.36;27.29
65175;BME280;51761;42.126;24.752;2023-03-14T11:14:21;99536.38;;;19.39;26.65
65175;BME280;51761;42.126;24.752;2023-03-14T11:27:48;99500.53;;;18.43;26.72
65175;BME280;51761;42.126;24.752;2023-03-14T11:30:19;99493.25;;;18.51;26.59
65175;BME280;51761;42.126;24.752;2023-03-14T11:35:41;99485.28;;;18.40;27.55
65175;BME280;51761;42.126;24.752;2023-03-14T11:38:19;99481.63;;;18.58;26.74
65175;BME280;51761;42.126;24.752;2023-03-14T11:40:50;99450.47;;;18.34;27.11
65175;BME280;51761;42.126;24.752;2023-03-14T11:45:59;99454.84;;;18.03;27.41
65175;BME280;51761;42.126;24.752;2023-03-14T11:51:27;99441.78;;;18.05;29.22
65175;BME280;51761;42.126;24.752;2023-03-14T11:54:02;99431.28;;;18.06;27.86
65175;BME280;51761;42.126;24.752;2023-03-14T11:59:05;99396.53;;;17.82;28.69
65175;BME280;51761;42.126;24.752;2023-03-14T12:01:44;99395.81;;;17.63;29.72
65175;BME280;51761;42.126;24.752;2023-03-14T12:04:20;99376.13;;;17.19;28.96
65175;BME280;51761;42.126;24.752;2023-03-14T12:06:50;99392.69;;;17.52;28.81
65175;BME280;51761;42.126;24.752;2023-03-14T12:09:18;99379.81;;;17.93;29.52
65175;BME280;51761;42.126;24.752;2023-03-14T12:11:49;99371.50;;;17.98;30.26
65175;BME280;51761;42.126;24.752;2023-03-14T12:16:54;99332.44;;;18.20;28.26
65175;BME280;51761;42.126;24.752;2023-03-14T12:21:54;99353.72;;;18.07;29.00
65175;BME280;51761;42.126;24.752;2023-03-14T12:24:27;99341.09;;;18.40;28.56
65175;BME280;51761;42.126;24.752;2023-03-14T12:26:57;99331.25;;;18.03;29.10
65175;BME280;51761;42.126;24.752;2023-03-14T12:29:23;99326.31;;;18.45;28.34
65175;BME280;51761;42.126;24.752;2023-03-14T12:34:39;99320.84;;;17.86;29.31
65175;BME280;51761;42.126;24.752;2023-03-14T12:43:02;99311.19;;;18.01;29.74
65175;BME280;51761;42.126;24.752;2023-03-14T12:45:33;99306.16;;;18.29;29.23
65175;BME280;51761;42.126;24.752;2023-03-14T12:50:36;99280.28;;;17.98;29.61
65175;BME280;51761;42.126;24.752;2023-03-14T13:01:18;99284.84;;;17.95;30.00
65175;BME280;51761;42.126;24.752;2023-03-14T13:03:51;99277.56;;;17.80;30.74
65175;BME280;51761;42.126;24.752;2023-03-14T13:12:11;99272.47;;;18.40;29.89
65175;BME280;51761;42.126;24.752;2023-03-14T13:14:43;99246.31;;;18.30;29.54
65175;BME280;51761;42.126;24.752;2023-03-14T13:17:11;99244.75;;;18.29;29.40
65175;BME280;51761;42.126;24.752;2023-03-14T13:19:37;99251.19;;;18.30;29.60
65175;BME280;51761;42.126;24.752;2023-03-14T13:22:06;99248.84;;;18.28;29.73
65175;BME280;51761;42.126;24.752;2023-03-14T13:24:38;99230.81;;;18.02;29.84
65175;BME280;51761;42.126;24.752;2023-03-14T13:27:03;99239.06;;;17.91;30.41
65175;BME280;51761;42.126;24.752;2023-03-14T13:29:32;99247.47;;;18.00;30.19
65175;BME280;51761;42.126;24.752;2023-03-14T13:32:00;99248.44;;;17.97;30.58
65175;BME280;51761;42.126;24.752;2023-03-14T13:34:31;99232.69;;;17.82;29.79
65175;BME280;51761;42.126;24.752;2023-03-14T13:36:57;99231.41;;;17.83;30.39
65175;BME280;51761;42.126;24.752;2023-03-14T13:39:24;99209.50;;;17.78;30.33
65175;BME280;51761;42.126;24.752;2023-03-14T13:41:51;99214.03;;;17.75;30.43
65175;BME280;51761;42.126;24.752;2023-03-14T13:44:25;99210.13;;;17.96;29.82
65175;BME280;51761;42.126;24.752;2023-03-14T13:46:51;99198.53;;;17.71;30.10
65175;BME280;51761;42.126;24.752;2023-03-14T13:49:23;99201.19;;;17.74;30.51
65175;BME280;51761;42.126;24.752;2023-03-14T13:51:49;99161.69;;;17.42;30.48
65175;BME280;51761;42.126;24.752;2023-03-14T13:54:17;99181.94;;;17.64;30.35
65175;BME280;51761;42.126;24.752;2023-03-14T13:56:44;99173.56;;;17.55;30.55
65175;BME280;51761;42.126;24.752;2023-03-14T13:59:24;99171.25;;;17.45;30.73
65175;BME280;51761;42.126;24.752;2023-03-14T14:01:50;99180.66;;;17.09;31.46
65175;BME280;51761;42.126;24.752;2023-03-14T14:04:22;99170.13;;;17.19;31.15
65175;BME280;51761;42.126;24.752;2023-03-14T14:06:59;99155.19;;;17.27;31.40
65175;BME280;51761;42.126;24.752;2023-03-14T14:09:26;99152.53;;;17.24;31.07
65175;BME280;51761;42.126;24.752;2023-03-14T14:14:40;99143.00;;;16.89;31.25
65175;BME280;51761;42.126;24.752;2023-03-14T14:17:11;99119.75;;;17.03;31.34
65175;BME280;51761;42.126;24.752;2023-03-14T14:19:39;99114.72;;;17.30;31.50